createdAt,value
2023-05-09T13:25:24.392Z,579.38
2023-05-09T13:26:25.484Z,568.12
2023-05-09T13:27:25.555Z,562.50
2023-05-09T13:28:25.654Z,562.50
2023-05-09T13:29:25.744Z,545.62
2023-05-09T13:30:25.907Z,528.75
2023-05-09T13:31:25.931Z,511.88
2023-05-09T13:32:26.001Z,478.12
2023-05-09T13:33:26.839Z,450.00
2023-05-09T13:34:26.148Z,421.88
2023-05-09T13:35:26.286Z,399.38
2023-05-09T13:36:26.333Z,376.88
2023-05-09T13:37:26.393Z,365.62
2023-05-09T13:38:26.483Z,360.00
2023-05-09T13:39:26.560Z,354.38
2023-05-09T13:40:26.669Z,354.38
2023-05-09T13:41:26.710Z,354.38
2023-05-09T13:42:26.801Z,360.00
2023-05-09T13:43:26.882Z,365.62
2023-05-09T13:44:26.973Z,371.25
2023-05-09T13:45:27.076Z,376.88
2023-05-09T13:46:27.171Z,382.50
2023-05-09T13:47:27.217Z,388.12
2023-05-09T13:48:27.283Z,382.50
2023-05-09T13:49:27.363Z,376.88
2023-05-09T13:50:27.522Z,365.62
2023-05-09T13:51:27.534Z,365.62
2023-05-09T13:52:27.604Z,365.62
2023-05-09T13:53:27.664Z,371.25
2023-05-09T13:54:27.812Z,388.12
2023-05-09T13:55:27.950Z,399.38
2023-05-09T13:56:27.910Z,405.00
2023-05-09T13:57:27.993Z,421.88
2023-05-09T13:58:28.105Z,421.88
2023-05-09T13:59:28.160Z,433.12
2023-05-09T14:00:28.248Z,450.00
2023-05-09T14:01:28.325Z,455.62
2023-05-09T14:02:28.397Z,455.62
2023-05-09T14:03:28.536Z,438.75
2023-05-09T14:04:28.563Z,427.50
2023-05-09T14:05:28.666Z,405.00
2023-05-09T14:06:28.714Z,382.50
2023-05-09T14:07:28.841Z,354.38
2023-05-09T14:08:28.882Z,326.25
2023-05-09T14:09:28.977Z,303.75
2023-05-09T14:10:29.087Z,270.00
2023-05-09T14:11:29.112Z,241.88
2023-05-09T14:12:29.206Z,219.38
2023-05-09T14:13:29.325Z,196.88
2023-05-09T14:14:29.377Z,180.00
2023-05-09T14:15:29.453Z,174.38
2023-05-09T14:16:29.590Z,180.00
2023-05-09T14:17:29.668Z,185.62
2023-05-09T14:18:29.710Z,213.75
2023-05-09T14:19:29.799Z,253.12
2023-05-09T14:20:29.924Z,281.25
2023-05-09T14:21:29.954Z,281.25
2023-05-09T14:22:30.044Z,264.38
2023-05-09T14:23:30.127Z,247.50
2023-05-09T14:24:30.210Z,225.00
2023-05-09T14:25:30.302Z,213.75
2023-05-09T14:26:30.373Z,213.75
2023-05-09T14:27:30.443Z,230.62
2023-05-09T14:28:30.513Z,236.25
2023-05-09T14:29:30.600Z,253.12
2023-05-09T14:30:30.713Z,270.00
2023-05-09T14:31:30.759Z,286.88
2023-05-09T14:32:30.838Z,298.12
2023-05-09T14:33:30.926Z,303.75
2023-05-09T14:34:31.029Z,303.75
2023-05-09T14:35:31.196Z,309.38
2023-05-09T14:36:31.193Z,303.75
2023-05-09T14:37:32.008Z,298.12
2023-05-09T14:38:31.357Z,286.88
2023-05-09T14:39:31.416Z,275.62
2023-05-09T14:40:31.535Z,270.00
2023-05-09T14:41:31.568Z,258.75
2023-05-09T14:42:31.742Z,253.12
2023-05-09T14:43:31.724Z,241.88
2023-05-09T14:44:31.803Z,236.25
2023-05-09T14:45:31.925Z,236.25
2023-05-09T14:46:31.973Z,236.25
2023-05-09T14:47:32.051Z,230.62
2023-05-09T14:48:32.137Z,225.00
2023-05-09T14:49:32.207Z,219.38
2023-05-09T14:50:32.331Z,219.38
2023-05-09T14:51:32.377Z,213.75
2023-05-09T14:52:32.485Z,219.38
2023-05-09T14:53:32.521Z,219.38
2023-05-09T14:54:32.616Z,219.38
2023-05-09T14:55:32.714Z,219.38
2023-05-09T14:56:32.776Z,213.75
2023-05-09T14:57:32.846Z,208.12
2023-05-09T14:58:32.949Z,202.50
2023-05-09T14:59:34.253Z,196.88
2023-05-09T15:00:33.082Z,196.88
2023-05-09T15:01:33.183Z,208.12
2023-05-09T15:02:33.252Z,208.12
2023-05-09T15:03:33.275Z,213.75
2023-05-09T15:04:33.577Z,225.00
2023-05-09T15:05:33.457Z,230.62
2023-05-09T15:06:33.502Z,236.25
2023-05-09T15:07:33.588Z,236.25
2023-05-09T15:08:33.673Z,236.25
2023-05-09T15:09:33.755Z,236.25
2023-05-09T15:10:33.858Z,230.62
2023-05-09T15:11:46.799Z,230.62
2023-05-09T15:12:34.033Z,225.00
2023-05-09T15:13:34.124Z,219.38
2023-05-09T15:14:34.192Z,213.75
2023-05-09T15:15:34.298Z,208.12
2023-05-09T15:16:34.361Z,196.88
2023-05-09T15:17:34.424Z,191.25
2023-05-09T15:18:34.525Z,185.62
2023-05-09T15:19:34.617Z,180.00
2023-05-09T15:20:34.717Z,180.00
2023-05-09T15:21:34.764Z,174.38
2023-05-09T15:22:34.850Z,174.38
2023-05-09T15:23:34.976Z,174.38
2023-05-09T15:24:35.022Z,180.00
2023-05-09T15:25:35.117Z,180.00
2023-05-09T15:26:35.185Z,180.00
2023-05-09T15:27:35.298Z,180.00
2023-05-09T15:28:35.328Z,174.38
2023-05-09T15:29:35.378Z,174.38
2023-05-09T15:30:37.344Z,168.75
2023-05-09T15:31:35.663Z,168.75
2023-05-09T15:32:35.990Z,163.12
2023-05-09T15:33:35.695Z,157.50
2023-05-09T15:34:35.766Z,157.50
2023-05-09T15:35:35.880Z,157.50
2023-05-09T15:36:35.955Z,151.88
2023-05-09T15:37:36.031Z,151.88
2023-05-09T15:38:36.115Z,151.88
2023-05-09T15:39:36.186Z,157.50
2023-05-09T15:40:36.278Z,157.50
2023-05-09T15:41:36.321Z,157.50
2023-05-09T15:42:36.411Z,157.50
2023-05-09T15:43:36.489Z,157.50
2023-05-09T15:44:36.658Z,157.50
2023-05-09T15:45:36.663Z,157.50
2023-05-09T15:46:36.772Z,157.50
2023-05-09T15:47:36.906Z,157.50
2023-05-09T15:48:36.939Z,157.50
2023-05-09T15:49:36.978Z,157.50
2023-05-09T15:50:37.118Z,157.50
2023-05-09T15:51:37.131Z,151.88
2023-05-09T15:52:37.220Z,151.88
2023-05-09T15:53:37.306Z,151.88
2023-05-09T15:54:37.437Z,151.88
2023-05-09T15:55:37.464Z,151.88
2023-05-09T15:56:37.560Z,151.88
2023-05-09T15:57:37.666Z,151.88
2023-05-09T15:58:37.742Z,146.25
2023-05-09T15:59:37.821Z,140.62
2023-05-09T16:00:37.930Z,140.62
2023-05-09T16:01:38.022Z,135.00
2023-05-09T16:02:38.140Z,135.00
2023-05-09T16:03:38.231Z,129.38
2023-05-09T16:04:38.224Z,129.38
2023-05-09T16:05:38.334Z,129.38
2023-05-09T16:06:38.402Z,129.38
2023-05-09T16:07:38.487Z,129.38
2023-05-09T16:08:38.568Z,129.38
2023-05-09T16:09:38.667Z,129.38
2023-05-09T16:10:38.802Z,129.38
2023-05-09T16:11:38.811Z,129.38
2023-05-09T16:12:38.911Z,123.75
2023-05-09T16:13:39.087Z,123.75
2023-05-09T16:14:39.087Z,123.75
2023-05-09T16:15:39.153Z,123.75
2023-05-09T16:16:39.282Z,118.12
2023-05-09T16:17:39.290Z,118.12
2023-05-09T16:18:39.376Z,118.12
2023-05-09T16:19:39.453Z,112.50
2023-05-09T16:20:39.568Z,112.50
2023-05-09T16:21:39.639Z,112.50
2023-05-09T16:22:39.681Z,112.50
2023-05-09T16:23:39.764Z,112.50
2023-05-09T16:24:39.858Z,106.88
2023-05-09T16:25:39.957Z,106.88
2023-05-09T16:26:40.034Z,112.50
2023-05-09T16:27:40.120Z,112.50
2023-05-09T16:28:40.172Z,112.50
2023-05-09T16:29:40.243Z,112.50
2023-05-09T16:30:40.358Z,112.50
2023-05-09T16:31:40.427Z,112.50
2023-05-09T16:32:40.508Z,112.50
2023-05-09T16:33:40.556Z,106.88
2023-05-09T16:34:40.645Z,106.88
2023-05-09T16:35:40.746Z,106.88
2023-05-09T16:36:40.787Z,106.88
2023-05-09T16:37:40.876Z,101.25
2023-05-09T16:38:40.960Z,101.25
2023-05-09T16:39:41.032Z,101.25
2023-05-09T16:40:41.115Z,101.25
2023-05-09T16:41:41.164Z,101.25
2023-05-09T16:42:42.895Z,101.25
2023-05-09T16:43:41.313Z,101.25
2023-05-09T16:44:41.403Z,101.25
2023-05-09T16:45:41.541Z,101.25
2023-05-09T16:46:41.568Z,101.25
2023-05-09T16:47:41.696Z,95.62
2023-05-09T16:48:41.743Z,95.62
2023-05-09T16:49:41.833Z,95.62
2023-05-09T16:50:41.943Z,90.00
2023-05-09T16:51:41.999Z,90.00
2023-05-09T16:52:42.087Z,84.38
2023-05-09T16:53:42.175Z,84.38
2023-05-09T16:54:42.259Z,84.38
2023-05-09T16:55:42.358Z,78.75
2023-05-09T16:56:42.409Z,78.75
2023-05-09T16:57:42.504Z,78.75
2023-05-09T16:58:42.573Z,78.75
2023-05-09T16:59:42.661Z,73.12
2023-05-09T17:00:42.761Z,73.12
2023-05-09T17:01:42.860Z,73.12
2023-05-09T17:02:42.941Z,73.12
2023-05-09T17:03:43.002Z,67.50
2023-05-09T17:04:43.092Z,67.50
2023-05-09T17:05:43.133Z,67.50
2023-05-09T17:06:43.225Z,67.50
2023-05-09T17:07:43.312Z,61.88
2023-05-09T17:08:43.363Z,61.88
2023-05-09T17:09:43.460Z,61.88
2023-05-09T17:10:43.587Z,61.88
2023-05-09T17:11:43.621Z,61.88
2023-05-09T17:12:43.732Z,61.88
2023-05-09T17:13:43.765Z,67.50
2023-05-09T17:14:44.786Z,67.50
2023-05-09T17:15:43.963Z,67.50
2023-05-09T17:16:44.016Z,67.50
2023-05-09T17:17:44.130Z,67.50
2023-05-09T17:18:44.160Z,67.50
2023-05-09T17:19:44.276Z,61.88
2023-05-09T17:20:44.339Z,61.88
2023-05-09T17:21:44.384Z,61.88
2023-05-09T17:22:44.437Z,61.88
2023-05-09T17:23:44.521Z,56.25
2023-05-09T17:24:44.599Z,56.25
2023-05-09T17:25:44.715Z,56.25
2023-05-09T17:26:44.762Z,56.25
2023-05-09T17:27:44.848Z,56.25
2023-05-09T17:28:44.933Z,56.25
2023-05-09T17:29:45.015Z,61.88
2023-05-09T17:30:45.104Z,61.88
2023-05-09T17:31:45.157Z,61.88
2023-05-09T17:32:45.246Z,61.88
2023-05-09T17:33:45.284Z,56.25
2023-05-09T17:34:45.360Z,56.25
2023-05-09T17:35:45.460Z,56.25
2023-05-09T17:36:45.489Z,56.25
2023-05-09T17:37:45.599Z,56.25
2023-05-09T17:38:45.666Z,50.62
2023-05-09T17:39:45.755Z,50.62
2023-05-09T17:40:45.848Z,50.62
2023-05-09T17:41:45.917Z,45.00
2023-05-09T17:42:45.991Z,45.00
2023-05-09T17:43:46.107Z,39.38
2023-05-09T17:44:46.180Z,39.38
2023-05-09T17:45:46.402Z,39.38
2023-05-09T17:46:46.371Z,33.75
2023-05-09T17:47:46.527Z,33.75
2023-05-09T17:48:46.530Z,39.38
2023-05-09T17:49:46.627Z,39.38
2023-05-09T17:50:46.741Z,39.38
2023-05-09T17:51:46.802Z,33.75
2023-05-09T17:52:46.883Z,33.75
2023-05-09T17:53:47.199Z,33.75
2023-05-09T17:54:47.034Z,39.38
2023-05-09T17:55:47.122Z,33.75
2023-05-09T17:56:47.168Z,33.75
2023-05-09T17:57:47.268Z,33.75
2023-05-09T17:58:47.317Z,28.12
2023-05-09T17:59:48.018Z,28.12
2023-05-09T18:00:47.506Z,22.50
2023-05-09T18:01:47.592Z,22.50
2023-05-09T18:02:47.720Z,16.88
2023-05-09T18:03:47.866Z,11.25
2023-05-09T18:04:47.792Z,16.88
2023-05-09T18:05:47.905Z,16.88
2023-05-09T18:06:47.953Z,16.88
2023-05-09T18:07:48.047Z,22.50
2023-05-09T18:08:48.118Z,16.88
2023-05-09T18:09:48.229Z,16.88
2023-05-09T18:10:48.320Z,16.88
2023-05-09T18:11:48.374Z,11.25
2023-05-09T18:12:48.573Z,11.25
2023-05-09T18:13:48.572Z,11.25
2023-05-09T18:14:48.629Z,11.25
2023-05-09T18:15:49.024Z,11.25
2023-05-09T18:16:48.775Z,11.25
2023-05-09T18:17:48.885Z,5.62
2023-05-09T18:18:48.971Z,5.62
2023-05-09T18:19:49.040Z,11.25
2023-05-09T18:20:49.136Z,11.25
2023-05-09T18:21:49.199Z,11.25
2023-05-09T18:22:49.302Z,11.25
2023-05-09T18:23:49.388Z,16.88
2023-05-09T18:24:49.474Z,16.88
2023-05-09T18:25:49.561Z,16.88
2023-05-09T18:26:49.605Z,16.88
2023-05-09T18:27:49.703Z,16.88
2023-05-09T18:28:49.787Z,16.88
2023-05-09T18:29:49.881Z,16.88
2023-05-09T18:30:49.982Z,16.88
2023-05-09T18:31:50.070Z,16.88
2023-05-09T18:32:50.129Z,16.88
2023-05-09T18:33:50.791Z,11.25
2023-05-09T18:34:50.256Z,11.25
2023-05-09T18:35:50.358Z,11.25
2023-05-09T18:36:50.415Z,11.25
2023-05-09T18:37:50.509Z,11.25
2023-05-09T18:38:50.601Z,11.25
2023-05-09T18:39:50.696Z,11.25
2023-05-09T18:40:50.790Z,11.25
2023-05-09T18:41:50.849Z,5.62
2023-05-09T18:42:50.942Z,5.62
2023-05-09T18:43:51.002Z,5.62
2023-05-09T18:44:51.071Z,5.62
2023-05-09T18:45:51.525Z,5.62
2023-05-09T18:46:51.282Z,5.62
2023-05-09T18:47:51.370Z,0.00
2023-05-09T18:48:51.425Z,0.00
2023-05-09T18:49:51.492Z,0.00
2023-05-09T18:50:51.577Z,0.00
2023-05-09T18:51:51.620Z,0.00
2023-05-09T18:52:51.703Z,0.00
2023-05-09T18:53:51.799Z,0.00
2023-05-09T18:54:51.869Z,0.00
2023-05-09T18:55:51.989Z,0.00
2023-05-09T18:56:52.034Z,0.00
2023-05-09T18:57:52.114Z,0.00
2023-05-09T18:58:52.201Z,0.00
2023-05-09T18:59:52.262Z,0.00
2023-05-09T19:00:52.397Z,0.00
2023-05-09T19:01:52.417Z,0.00
2023-05-09T19:02:52.544Z,0.00
2023-05-09T19:03:52.591Z,0.00
2023-05-09T19:04:52.661Z,0.00
2023-05-09T19:05:52.750Z,0.00
2023-05-09T19:06:52.799Z,0.00
2023-05-09T19:07:54.132Z,0.00
2023-05-09T19:08:52.994Z,0.00
2023-05-09T19:09:53.066Z,0.00
2023-05-09T19:10:53.186Z,0.00
2023-05-09T19:11:53.232Z,0.00
2023-05-09T19:12:53.402Z,0.00
2023-05-09T19:13:53.398Z,0.00
2023-05-09T19:14:53.463Z,0.00
2023-05-09T19:15:53.583Z,0.00
2023-05-09T19:16:53.682Z,0.00
2023-05-09T19:17:53.823Z,0.00
2023-05-09T19:18:53.772Z,0.00
2023-05-09T19:19:53.878Z,0.00
2023-05-09T19:20:53.995Z,0.00
2023-05-09T19:21:54.046Z,0.00
2023-05-09T19:22:54.127Z,0.00
2023-05-09T19:23:54.232Z,0.00
2023-05-09T19:24:54.310Z,0.00
2023-05-09T19:25:54.428Z,0.00
2023-05-09T19:26:54.490Z,0.00
2023-05-09T19:27:54.589Z,0.00
2023-05-09T19:28:54.670Z,0.00
2023-05-09T19:29:55.622Z,0.00
2023-05-09T19:30:54.990Z,0.00
2023-05-09T19:31:54.926Z,0.00
2023-05-09T19:32:55.082Z,0.00
2023-05-09T19:33:55.097Z,0.00
2023-05-09T19:34:55.172Z,0.00
2023-05-09T19:35:55.288Z,0.00
2023-05-09T19:36:55.355Z,0.00
2023-05-09T19:37:55.454Z,0.00
2023-05-09T19:38:55.503Z,0.00
2023-05-09T19:39:55.599Z,0.00
2023-05-09T19:40:55.678Z,0.00
2023-05-09T19:41:55.868Z,0.00
2023-05-09T19:42:55.835Z,0.00
2023-05-09T19:43:55.888Z,0.00
2023-05-09T19:44:55.979Z,0.00
2023-05-09T19:45:56.144Z,0.00
2023-05-09T19:46:56.138Z,0.00
2023-05-09T19:47:56.246Z,0.00
2023-05-09T19:48:56.326Z,0.00
2023-05-09T19:49:56.404Z,0.00
2023-05-09T19:50:56.494Z,0.00
2023-05-09T19:51:56.542Z,0.00
2023-05-09T19:52:56.639Z,0.00
2023-05-09T19:53:56.710Z,0.00
2023-05-09T19:54:56.791Z,0.00
2023-05-09T19:55:56.929Z,0.00
2023-05-09T19:56:56.953Z,0.00
2023-05-09T19:57:57.028Z,0.00
2023-05-09T19:58:57.113Z,0.00
2023-05-09T19:59:57.222Z,0.00
2023-05-09T20:00:57.312Z,0.00
2023-05-09T20:01:57.458Z,0.00
2023-05-09T20:02:57.533Z,0.00
2023-05-09T20:03:57.623Z,0.00
2023-05-09T20:04:57.625Z,0.00
2023-05-09T20:05:57.749Z,0.00
2023-05-09T20:06:57.795Z,0.00
2023-05-09T20:07:57.889Z,0.00
2023-05-09T20:08:57.994Z,0.00
2023-05-09T20:09:58.065Z,0.00
2023-05-09T20:10:58.169Z,0.00
2023-05-09T20:11:58.236Z,0.00
2023-05-09T20:12:58.377Z,0.00
2023-05-09T20:13:58.394Z,0.00
2023-05-09T20:14:58.466Z,0.00
2023-05-09T20:15:58.637Z,0.00
2023-05-09T20:16:58.654Z,0.00
2023-05-09T20:17:58.836Z,0.00
2023-05-09T20:18:58.809Z,0.00
2023-05-09T20:19:58.906Z,0.00
2023-05-09T20:20:59.006Z,0.00
2023-05-09T20:21:59.100Z,0.00
2023-05-09T20:22:59.153Z,0.00
2023-05-09T20:23:59.243Z,0.00
2023-05-09T20:24:59.326Z,0.00
2023-05-09T20:25:59.440Z,0.00
2023-05-09T20:26:59.561Z,0.00
2023-05-09T20:27:59.560Z,0.00
2023-05-09T20:28:59.619Z,0.00
2023-05-09T20:29:59.715Z,0.00
2023-05-09T20:30:59.815Z,0.00
2023-05-09T20:31:59.998Z,0.00
2023-05-09T20:33:00.063Z,0.00
2023-05-09T20:34:00.112Z,0.00
2023-05-09T20:35:00.154Z,0.00
2023-05-09T20:36:00.246Z,0.00
2023-05-09T20:37:00.299Z,0.00
2023-05-09T20:38:00.392Z,0.00
2023-05-09T20:39:00.479Z,0.00
2023-05-09T20:40:00.594Z,0.00
2023-05-09T20:41:00.672Z,0.00
2023-05-09T20:42:00.726Z,0.00
2023-05-09T20:43:00.807Z,0.00
2023-05-09T20:44:00.901Z,0.00
2023-05-09T20:45:00.984Z,0.00
2023-05-09T20:46:01.220Z,0.00
2023-05-09T20:47:01.143Z,0.00
2023-05-09T20:48:01.298Z,0.00
2023-05-09T20:49:01.323Z,0.00
2023-05-09T20:50:01.438Z,0.00
2023-05-09T20:51:01.516Z,0.00
2023-05-09T20:52:01.576Z,0.00
2023-05-09T20:53:01.680Z,0.00
2023-05-09T20:54:01.746Z,0.00
2023-05-09T20:55:01.842Z,0.00
2023-05-09T20:56:01.954Z,0.00
2023-05-09T20:57:02.024Z,0.00
2023-05-09T20:58:02.130Z,0.00
2023-05-09T20:59:02.203Z,0.00
2023-05-09T21:00:02.263Z,0.00
2023-05-09T21:01:02.369Z,0.00
2023-05-09T21:02:02.455Z,0.00
2023-05-09T21:03:02.626Z,0.00
2023-05-09T21:04:02.587Z,0.00
2023-05-09T21:05:02.676Z,0.00
2023-05-09T21:06:02.774Z,0.00
2023-05-09T21:07:02.870Z,0.00
2023-05-09T21:08:02.954Z,0.00
2023-05-09T21:09:03.027Z,0.00
2023-05-09T21:10:03.114Z,0.00
2023-05-09T21:11:03.216Z,0.00
2023-05-09T21:12:03.259Z,0.00
2023-05-09T21:13:03.380Z,0.00
2023-05-09T21:14:03.411Z,0.00
2023-05-09T21:15:03.506Z,0.00
2023-05-09T21:16:03.601Z,0.00
2023-05-09T21:17:03.674Z,0.00
2023-05-09T21:18:03.755Z,0.00
2023-05-09T21:19:03.828Z,0.00
2023-05-09T21:20:03.922Z,0.00
2023-05-09T21:21:04.029Z,0.00
2023-05-09T21:22:04.089Z,0.00
2023-05-09T21:23:04.172Z,0.00
2023-05-09T21:24:04.279Z,0.00
2023-05-09T21:25:04.346Z,0.00
2023-05-09T21:26:04.461Z,0.00
2023-05-09T21:27:04.504Z,0.00
2023-05-09T21:28:04.567Z,0.00
2023-05-09T21:29:04.650Z,0.00
2023-05-09T21:30:04.786Z,0.00
2023-05-09T21:31:04.910Z,0.00
2023-05-09T21:32:04.925Z,0.00
2023-05-09T21:33:05.119Z,0.00
2023-05-09T21:34:05.119Z,0.00
2023-05-09T21:35:05.169Z,0.00
2023-05-09T21:36:05.291Z,0.00
2023-05-09T21:37:05.357Z,0.00
2023-05-09T21:38:05.400Z,0.00
2023-05-09T21:39:05.507Z,0.00
2023-05-09T21:40:05.967Z,0.00
2023-05-09T21:41:05.713Z,0.00
2023-05-09T21:42:05.750Z,0.00
2023-05-09T21:43:05.852Z,0.00
2023-05-09T21:44:05.945Z,0.00
2023-05-09T21:45:06.021Z,0.00
2023-05-09T21:46:06.180Z,0.00
2023-05-09T21:47:06.278Z,0.00
2023-05-09T21:48:06.271Z,0.00
2023-05-09T21:49:06.341Z,0.00
2023-05-09T21:50:06.392Z,0.00
2023-05-09T21:51:06.516Z,0.00
2023-05-09T21:52:06.573Z,0.00
2023-05-09T21:53:06.671Z,0.00
2023-05-09T21:54:06.759Z,0.00
2023-05-09T21:55:06.848Z,0.00
2023-05-09T21:56:06.922Z,0.00
2023-05-09T21:57:06.978Z,0.00
2023-05-09T21:58:07.042Z,0.00
2023-05-09T21:59:07.135Z,0.00
2023-05-09T22:00:07.204Z,0.00
2023-05-09T22:01:07.320Z,0.00
2023-05-09T22:02:07.518Z,0.00
2023-05-09T22:03:07.667Z,0.00
2023-05-09T22:04:07.652Z,0.00
2023-05-09T22:05:07.661Z,0.00
2023-05-09T22:06:07.786Z,0.00
2023-05-09T22:07:07.829Z,0.00
2023-05-09T22:08:07.910Z,0.00
2023-05-09T22:09:08.024Z,0.00
2023-05-09T22:10:08.084Z,0.00
2023-05-09T22:11:08.264Z,0.00
2023-05-09T22:12:08.233Z,0.00
2023-05-09T22:13:08.420Z,0.00
2023-05-09T22:14:08.412Z,0.00
2023-05-09T22:15:08.495Z,0.00
2023-05-09T22:16:08.622Z,0.00
2023-05-09T22:17:08.687Z,0.00
2023-05-09T22:18:08.815Z,0.00
2023-05-09T22:19:08.858Z,0.00
2023-05-09T22:20:08.910Z,0.00
2023-05-09T22:21:09.032Z,0.00
2023-05-09T22:22:09.081Z,0.00
2023-05-09T22:23:09.170Z,0.00
2023-05-09T22:24:09.247Z,0.00
2023-05-09T22:25:09.342Z,0.00
2023-05-09T22:26:09.452Z,0.00
2023-05-09T22:27:09.517Z,0.00
2023-05-09T22:28:09.601Z,0.00
2023-05-09T22:29:09.695Z,0.00
2023-05-09T22:30:09.781Z,0.00
2023-05-09T22:31:09.902Z,0.00
2023-05-09T22:32:10.099Z,0.00
2023-05-09T22:33:10.094Z,0.00
2023-05-09T22:34:10.117Z,0.00
2023-05-09T22:35:10.239Z,0.00
2023-05-09T22:36:10.304Z,0.00
2023-05-09T22:37:10.374Z,0.00
2023-05-09T22:38:10.457Z,0.00
2023-05-09T22:39:10.547Z,0.00
2023-05-09T22:40:10.636Z,0.00
2023-05-09T22:41:10.767Z,0.00
2023-05-09T22:42:10.817Z,0.00
2023-05-09T22:43:10.914Z,0.00
2023-05-09T22:44:11.001Z,0.00
2023-05-09T22:45:11.107Z,0.00
2023-05-09T22:46:11.231Z,0.00
2023-05-09T22:47:11.247Z,0.00
2023-05-09T22:48:11.366Z,0.00
2023-05-09T22:49:11.403Z,0.00
2023-05-09T22:50:11.489Z,0.00
2023-05-09T22:51:11.592Z,0.00
2023-05-09T22:52:11.664Z,0.00
2023-05-09T22:53:11.746Z,0.00
2023-05-09T22:54:11.792Z,0.00
2023-05-09T22:55:11.894Z,0.00
2023-05-09T22:56:11.957Z,0.00
2023-05-09T22:57:12.032Z,0.00
2023-05-09T22:58:12.122Z,0.00
2023-05-09T22:59:12.217Z,0.00
2023-05-09T23:00:12.302Z,0.00
2023-05-09T23:01:12.455Z,0.00
2023-05-09T23:02:12.560Z,0.00
2023-05-09T23:03:12.595Z,0.00
2023-05-09T23:04:12.616Z,0.00
2023-05-09T23:05:12.733Z,0.00
2023-05-09T23:06:12.806Z,0.00
2023-05-09T23:07:12.864Z,0.00
2023-05-09T23:08:12.916Z,0.00
2023-05-09T23:09:12.999Z,0.00
2023-05-09T23:10:13.132Z,0.00
2023-05-09T23:11:13.215Z,0.00
2023-05-09T23:12:13.258Z,0.00
2023-05-09T23:13:13.407Z,0.00
2023-05-09T23:14:13.407Z,0.00
2023-05-09T23:15:13.500Z,0.00
2023-05-09T23:16:13.612Z,0.00
2023-05-09T23:17:13.684Z,0.00
2023-05-09T23:18:13.795Z,0.00
2023-05-09T23:19:13.859Z,0.00
2023-05-09T23:20:14.231Z,0.00
2023-05-09T23:21:14.029Z,0.00
2023-05-09T23:22:14.071Z,0.00
2023-05-09T23:23:14.181Z,0.00
2023-05-09T23:24:14.260Z,0.00
2023-05-09T23:25:14.370Z,0.00
2023-05-09T23:26:14.428Z,0.00
2023-05-09T23:27:14.515Z,0.00
2023-05-09T23:28:14.586Z,0.00
2023-05-09T23:29:14.698Z,0.00
2023-05-09T23:30:14.941Z,0.00
2023-05-09T23:31:14.910Z,0.00
2023-05-09T23:32:14.927Z,0.00
2023-05-09T23:33:15.026Z,0.00
2023-05-09T23:34:15.112Z,0.00
2023-05-09T23:35:15.201Z,0.00
2023-05-09T23:36:15.306Z,0.00
2023-05-09T23:37:15.429Z,0.00
2023-05-09T23:38:15.454Z,0.00
2023-05-09T23:39:15.577Z,0.00
2023-05-09T23:40:16.048Z,0.00
2023-05-09T23:41:15.712Z,0.00
2023-05-09T23:42:15.767Z,0.00
2023-05-09T23:43:15.859Z,0.00
2023-05-09T23:44:15.918Z,0.00
2023-05-09T23:45:16.033Z,0.00
2023-05-09T23:46:16.137Z,0.00
2023-05-09T23:47:16.188Z,0.00
2023-05-09T23:48:16.270Z,0.00
2023-05-09T23:49:16.360Z,0.00
2023-05-09T23:50:16.704Z,0.00
2023-05-09T23:51:16.565Z,0.00
2023-05-09T23:52:16.620Z,0.00
2023-05-09T23:53:16.723Z,0.00
2023-05-09T23:54:16.781Z,0.00
2023-05-09T23:55:16.864Z,0.00
2023-05-09T23:56:16.996Z,0.00
2023-05-09T23:57:17.058Z,0.00
2023-05-09T23:58:17.118Z,0.00
2023-05-09T23:59:17.209Z,0.00
